Time;durP1;ratioP1;P1;durP2;ratioP2;P2;SDS_P1;SDS_P2;PMS_P1;PMS_P2;Temp;Humidity;BMP_temperature;BMP_pressure;BME280_temperature;BME280_humidity;BME280_pressure;Samples;Min_cycle;Max_cycle;Signal;HPM_P1;HPM_P2
2021/12/12 00:01:35;;;;;;;15.63;6.90;;;6.40;99.90;;;;;;5055302;28;20167;-66
2021/12/12 00:04:12;;;;;;;14.80;6.38;;;6.40;99.90;;;;;;5055750;28;20672;-66
2021/12/12 00:06:48;;;;;;;15.88;7.10;;;6.40;99.90;;;;;;5055404;28;20163;-67
2021/12/12 00:09:42;;;;;;;16.67;7.55;;;6.40;99.90;;;;;;5056195;28;20162;-67
2021/12/12 00:12:26;;;;;;;22.85;7.55;;;6.40;99.90;;;;;;5054968;28;20167;-67
2021/12/12 00:14:52;;;;;;;18.23;6.97;;;6.30;99.90;;;;;;5055306;28;20162;-66
2021/12/12 00:17:19;;;;;;;18.90;7.20;;;6.30;99.90;;;;;;5055044;28;20643;-66
2021/12/12 00:19:45;;;;;;;18.88;7.28;;;6.30;99.90;;;;;;5055441;28;20174;-66
2021/12/12 00:22:15;;;;;;;15.90;6.80;;;6.40;99.90;;;;;;5054889;28;20213;-66
2021/12/12 00:24:42;;;;;;;17.17;7.28;;;6.40;99.90;;;;;;5055297;28;20602;-66
2021/12/12 00:27:08;;;;;;;18.80;6.35;;;6.40;99.90;;;;;;5054870;28;20532;-67
2021/12/12 00:29:35;;;;;;;19.17;6.75;;;6.40;99.90;;;;;;5055000;28;20532;-66
2021/12/12 00:32:10;;;;;;;18.15;7.72;;;6.40;99.90;;;;;;5053665;28;20237;-66
2021/12/12 00:34:41;;;;;;;20.15;7.40;;;6.50;99.90;;;;;;5055469;28;20174;-66
2021/12/12 00:37:08;;;;;;;19.42;6.93;;;6.50;99.90;;;;;;5054885;28;20159;-67
2021/12/12 00:39:37;;;;;;;19.70;7.63;;;6.50;99.90;;;;;;5055343;28;20175;-65
2021/12/12 00:42:10;;;;;;;21.10;8.73;;;6.50;99.90;;;;;;5053314;28;20214;-66
2021/12/12 00:44:38;;;;;;;15.35;7.43;;;6.50;99.90;;;;;;5054894;28;20182;-66
2021/12/12 00:47:08;;;;;;;17.15;7.28;;;6.50;99.90;;;;;;5054265;28;20179;-67
2021/12/12 00:49:35;;;;;;;14.60;6.93;;;6.50;99.90;;;;;;5055420;28;20167;-67
2021/12/12 00:52:02;;;;;;;21.30;7.93;;;6.60;99.90;;;;;;5053315;28;20198;-67
2021/12/12 00:54:31;;;;;;;22.10;7.82;;;6.50;99.90;;;;;;5054497;28;20162;-66
2021/12/12 00:56:59;;;;;;;19.00;7.47;;;6.50;99.90;;;;;;5053074;28;20187;-68
2021/12/12 00:59:26;;;;;;;16.55;7.55;;;6.60;99.90;;;;;;5054994;28;20620;-67
2021/12/12 01:01:54;;;;;;;15.15;6.68;;;6.60;99.90;;;;;;5054177;28;20179;-67
2021/12/12 01:04:32;;;;;;;18.20;6.60;;;6.60;99.90;;;;;;5054631;28;20175;-67
2021/12/12 01:07:04;;;;;;;19.73;7.32;;;6.60;99.90;;;;;;5054238;28;20478;-65
2021/12/12 01:09:33;;;;;;;15.23;7.32;;;6.60;99.90;;;;;;5054780;28;20164;-67
2021/12/12 01:12:06;;;;;;;17.15;6.70;;;6.60;99.90;;;;;;5053758;28;20175;-66
2021/12/12 01:14:41;;;;;;;21.38;7.00;;;6.60;99.90;;;;;;5054194;28;20163;-67
2021/12/12 01:17:13;;;;;;;17.75;7.80;;;6.60;99.90;;;;;;5054275;28;20289;-67
2021/12/12 01:19:44;;;;;;;16.27;7.88;;;6.50;99.90;;;;;;5054286;28;20644;-67
2021/12/12 01:22:19;;;;;;;24.90;8.00;;;6.60;99.90;;;;;;5053521;28;20206;-64
2021/12/12 01:24:47;;;;;;;21.08;7.57;;;6.60;99.90;;;;;;5053453;28;20163;-67
2021/12/12 01:27:14;;;;;;;18.13;8.35;;;6.60;99.90;;;;;;5053789;28;20171;-66
2021/12/12 01:29:41;;;;;;;16.45;8.10;;;6.70;99.90;;;;;;5054331;28;20583;-67
2021/12/12 01:32:12;;;;;;;21.15;7.47;;;6.60;99.90;;;;;;5053660;28;20669;-67
2021/12/12 01:34:39;;;;;;;22.80;7.75;;;6.60;99.90;;;;;;5054111;28;20552;-66
2021/12/12 01:37:34;;;;;;;15.55;7.68;;;6.80;99.90;;;;;;5053383;28;20506;-67
2021/12/12 01:40:13;;;;;;;19.75;8.13;;;6.60;99.90;;;;;;5053864;28;20191;-65
2021/12/12 01:42:41;;;;;;;18.52;8.65;;;6.60;99.90;;;;;;5054255;28;20256;-66
2021/12/12 01:45:33;;;;;;;16.83;8.32;;;6.60;99.90;;;;;;5053372;28;20186;-65
2021/12/12 01:48:31;;;;;;;22.10;7.53;;;6.60;99.90;;;;;;5052806;28;20171;-66
2021/12/12 01:51:09;;;;;;;22.67;8.15;;;6.60;99.90;;;;;;5053069;28;20655;-67
2021/12/12 01:53:39;;;;;;;15.95;7.28;;;6.70;99.90;;;;;;5053026;28;20182;-66
2021/12/12 01:56:19;;;;;;;19.30;8.95;;;6.70;99.90;;;;;;5053063;28;20164;-67
2021/12/12 01:58:49;;;;;;;15.77;7.55;;;6.70;99.90;;;;;;5053898;28;20182;-67
2021/12/12 02:01:25;;;;;;;22.65;9.35;;;6.60;99.90;;;;;;5053122;28;20194;-67
2021/12/12 02:04:00;;;;;;;18.73;8.73;;;6.80;99.90;;;;;;5051844;28;20210;-67
2021/12/12 02:06:27;;;;;;;18.42;9.20;;;6.70;99.90;;;;;;5052942;28;20533;-66
2021/12/12 02:08:54;;;;;;;26.05;9.73;;;6.80;99.90;;;;;;5052193;28;20639;-66
2021/12/12 02:11:25;;;;;;;19.13;8.52;;;6.80;99.90;;;;;;5053125;28;20203;-67
2021/12/12 02:13:54;;;;;;;18.63;8.82;;;6.80;99.90;;;;;;5053193;28;20253;-67
2021/12/12 02:16:22;;;;;;;18.63;8.95;;;6.70;99.90;;;;;;5052863;28;20213;-67
2021/12/12 02:18:51;;;;;;;21.00;8.73;;;6.80;99.90;;;;;;5052409;28;20281;-67
2021/12/12 02:21:25;;;;;;;23.25;9.85;;;6.90;99.90;;;;;;5052785;28;20198;-66
2021/12/12 02:37:29;;;;;;;20.50;10.27;;;6.80;99.90;;;;;;5052482;28;20627;-67
2021/12/12 02:39:55;;;;;;;20.38;10.68;;;6.80;99.90;;;;;;5052804;28;20175;-67
2021/12/12 02:42:23;;;;;;;20.73;10.85;;;6.80;99.90;;;;;;5052812;28;20211;-68
2021/12/12 02:44:53;;;;;;;19.20;11.38;;;6.80;99.90;;;;;;5053279;28;20187;-66
2021/12/12 02:47:21;;;;;;;21.27;9.77;;;6.80;99.90;;;;;;5052384;28;20600;-66
2021/12/12 02:52:38;;;;;;;18.92;11.48;;;7.00;99.90;;;;;;5052674;28;20621;-65
2021/12/12 02:55:12;;;;;;;18.10;11.05;;;7.00;99.90;;;;;;5052900;28;20236;-65
2021/12/12 02:57:38;;;;;;;22.42;11.05;;;7.00;99.90;;;;;;5052996;28;20523;-66
2021/12/12 03:00:08;;;;;;;23.67;12.57;;;7.00;99.90;;;;;;5051755;28;20178;-64
2021/12/12 03:02:43;;;;;;;18.52;11.25;;;7.10;99.90;;;;;;5052785;28;20191;-65
2021/12/12 03:05:09;;;;;;;22.70;10.88;;;7.00;99.90;;;;;;5052428;28;20174;-66
2021/12/12 03:07:35;;;;;;;16.33;11.55;;;7.00;99.90;;;;;;5052844;28;20262;-65
2021/12/12 03:10:08;;;;;;;20.33;13.15;;;7.10;99.90;;;;;;5053009;28;20178;-66
2021/12/12 03:12:36;;;;;;;15.10;10.98;;;7.20;99.90;;;;;;5053117;28;20163;-65
2021/12/12 03:15:17;;;;;;;17.77;10.63;;;7.10;99.90;;;;;;5052519;28;20243;-66
2021/12/12 03:17:45;;;;;;;18.20;12.18;;;7.10;99.90;;;;;;5053018;28;20168;-66
2021/12/12 03:20:24;;;;;;;17.58;10.38;;;7.20;99.90;;;;;;5052487;28;20189;-65
2021/12/12 03:23:15;;;;;;;16.55;12.52;;;7.20;99.90;;;;;;5052894;28;20324;-65
2021/12/12 03:25:43;;;;;;;17.75;11.50;;;7.30;99.90;;;;;;5039852;28;20194;-66
2021/12/12 03:28:12;;;;;;;17.15;11.55;;;7.30;99.90;;;;;;5052452;28;20180;-65
2021/12/12 03:30:38;;;;;;;14.85;11.38;;;7.40;99.90;;;;;;5052235;28;20257;-66
2021/12/12 03:33:06;;;;;;;16.98;11.93;;;7.40;99.90;;;;;;5052575;28;20306;-65
2021/12/12 03:35:33;;;;;;;17.05;13.13;;;7.40;99.90;;;;;;5051969;28;20205;-66
2021/12/12 03:37:59;;;;;;;19.13;12.90;;;7.40;99.90;;;;;;5051364;28;20520;-66
2021/12/12 03:40:29;;;;;;;19.75;13.77;;;7.40;99.90;;;;;;5052393;28;20237;-66
2021/12/12 03:42:57;;;;;;;18.88;13.63;;;7.40;99.90;;;;;;5052734;28;20209;-66
2021/12/12 03:45:25;;;;;;;14.35;12.82;;;7.40;99.90;;;;;;5051932;28;20180;-65
2021/12/12 03:48:00;;;;;;;16.33;13.00;;;7.40;99.90;;;;;;5052814;28;20175;-65
2021/12/12 03:50:31;;;;;;;14.23;12.70;;;7.40;99.90;;;;;;5055661;28;20225;-65
2021/12/12 03:52:58;;;;;;;16.25;13.15;;;7.40;99.90;;;;;;5056009;28;20587;-68
2021/12/12 03:55:26;;;;;;;18.33;14.65;;;7.40;99.90;;;;;;5055568;28;20171;-68
2021/12/12 03:57:53;;;;;;;16.80;12.43;;;7.50;99.90;;;;;;5055648;28;20182;-67
2021/12/12 04:00:25;;;;;;;16.60;12.75;;;7.50;99.90;;;;;;5055118;28;20202;-65
2021/12/12 04:02:50;;;;;;;14.02;11.82;;;7.40;99.90;;;;;;5055754;28;20187;-65
2021/12/12 04:05:16;;;;;;;14.15;12.52;;;7.40;99.90;;;;;;5054265;28;20206;-67
2021/12/12 04:07:42;;;;;;;16.35;13.55;;;7.40;99.90;;;;;;5055712;28;20246;-68
2021/12/12 04:10:12;;;;;;;16.40;12.38;;;7.40;99.90;;;;;;5054078;28;20248;-67
2021/12/12 04:12:38;;;;;;;18.67;13.52;;;7.40;99.90;;;;;;5054580;28;20178;-68
2021/12/12 04:15:05;;;;;;;19.67;15.93;;;7.50;99.90;;;;;;5054829;28;20179;-65
2021/12/12 04:17:32;;;;;;;19.48;16.08;;;7.40;99.90;;;;;;5054176;28;20272;-65
2021/12/12 04:20:01;;;;;;;18.35;15.82;;;7.50;99.90;;;;;;5055727;28;20176;-66
2021/12/12 04:22:30;;;;;;;17.63;15.80;;;7.50;99.90;;;;;;5053666;28;20599;-65
2021/12/12 04:24:56;;;;;;;16.33;14.43;;;7.40;99.90;;;;;;5054202;28;20174;-66
2021/12/12 04:27:23;;;;;;;17.08;14.68;;;7.40;99.90;;;;;;5053738;28;20175;-65
2021/12/12 04:29:51;;;;;;;16.33;14.52;;;7.40;99.90;;;;;;5055224;28;20175;-68
2021/12/12 04:32:21;;;;;;;18.55;16.35;;;7.40;99.90;;;;;;5054738;28;20183;-65
2021/12/12 04:34:51;;;;;;;19.48;17.27;;;7.50;99.90;;;;;;5055206;28;20265;-67
2021/12/12 04:37:18;;;;;;;20.67;16.83;;;7.40;99.90;;;;;;5054829;28;20165;-68
2021/12/12 04:39:48;;;;;;;21.75;17.75;;;7.50;99.90;;;;;;5055384;28;20221;-69
2021/12/12 04:42:24;;;;;;;20.88;18.55;;;7.50;99.90;;;;;;5054301;28;20207;-67
2021/12/12 04:44:54;;;;;;;18.52;16.40;;;7.50;99.90;;;;;;5053748;28;20175;-67
2021/12/12 04:50:45;;;;;;;18.85;13.48;;;7.70;99.90;;;;;;5054459;28;20182;-65
2021/12/12 04:53:17;;;;;;;15.80;13.55;;;7.60;99.90;;;;;;5055044;28;20829;-67
2021/12/12 04:56:09;;;;;;;17.38;13.25;;;7.60;99.90;;;;;;5053139;28;20175;-65
2021/12/12 04:58:43;;;;;;;17.70;15.57;;;7.50;99.90;;;;;;5054867;28;20233;-67
2021/12/12 05:01:30;;;;;;;18.60;14.23;;;7.60;99.90;;;;;;5054466;28;20250;-67
2021/12/12 05:04:06;;;;;;;16.60;14.90;;;7.50;99.90;;;;;;5054591;28;20202;-65
2021/12/12 05:06:40;;;;;;;17.85;15.20;;;7.60;99.90;;;;;;5053060;28;20270;-66
2021/12/12 05:09:17;;;;;;;16.88;15.38;;;7.60;99.90;;;;;;5055161;28;20158;-68
2021/12/12 05:12:20;;;;;;;17.05;15.35;;;7.50;99.90;;;;;;5053862;28;20162;-66
2021/12/12 05:14:55;;;;;;;15.50;14.10;;;7.70;99.90;;;;;;5052960;28;20556;-65
2021/12/12 05:17:33;;;;;;;18.10;14.00;;;7.60;99.90;;;;;;5054031;28;20199;-68
2021/12/12 05:20:04;;;;;;;22.65;16.60;;;7.60;99.90;;;;;;5054972;28;20193;-66
2021/12/12 05:22:43;;;;;;;17.50;15.73;;;7.70;99.90;;;;;;5054167;28;20198;-65
2021/12/12 05:25:14;;;;;;;16.40;14.77;;;7.60;99.90;;;;;;5053650;28;20513;-68
2021/12/12 05:27:42;;;;;;;17.73;15.77;;;7.50;99.90;;;;;;5054444;28;20166;-65
2021/12/12 05:30:13;;;;;;;17.00;15.20;;;7.60;99.90;;;;;;5053410;28;20575;-62
2021/12/12 05:32:40;;;;;;;18.92;16.52;;;7.60;99.90;;;;;;5053864;28;20163;-65
2021/12/12 05:35:09;;;;;;;18.52;15.15;;;7.60;99.90;;;;;;5053754;28;20186;-65
2021/12/12 05:37:36;;;;;;;17.33;14.50;;;7.60;99.90;;;;;;5054276;28;20548;-66
2021/12/12 05:40:07;;;;;;;17.55;14.80;;;7.80;99.90;;;;;;5053913;28;20282;-64
2021/12/12 05:42:33;;;;;;;14.85;13.40;;;7.70;99.90;;;;;;5053940;28;20658;-66
2021/12/12 05:45:00;;;;;;;17.05;14.65;;;7.70;99.90;;;;;;5054017;28;20198;-65
2021/12/12 05:47:26;;;;;;;16.10;14.32;;;7.60;99.90;;;;;;5052296;28;20183;-68
2021/12/12 05:49:52;;;;;;;15.77;14.18;;;7.70;99.90;;;;;;5054058;28;20168;-65
2021/12/12 05:52:21;;;;;;;16.92;13.90;;;7.70;99.90;;;;;;5052926;28;20186;-65
2021/12/12 05:54:49;;;;;;;14.70;13.27;;;7.80;99.90;;;;;;5053914;28;20191;-65
2021/12/12 05:57:22;;;;;;;15.35;13.70;;;7.70;99.90;;;;;;5053026;28;20194;-68
2021/12/12 05:59:50;;;;;;;17.65;14.32;;;7.70;99.90;;;;;;5053927;28;20543;-68
2021/12/12 06:02:17;;;;;;;13.57;12.18;;;7.90;99.90;;;;;;5052951;28;20308;-66
2021/12/12 06:04:43;;;;;;;15.95;13.73;;;7.80;99.90;;;;;;5053811;28;20624;-65
2021/12/12 06:07:14;;;;;;;15.60;13.75;;;7.90;99.90;;;;;;5052840;28;20180;-66
2021/12/12 06:09:40;;;;;;;17.52;13.88;;;7.90;99.90;;;;;;5036024;28;20521;-67
2021/12/12 06:12:07;;;;;;;17.38;13.93;;;7.80;99.90;;;;;;5050677;28;20236;-65
2021/12/12 06:14:34;;;;;;;19.92;15.35;;;7.90;99.90;;;;;;5053568;28;20625;-67
2021/12/12 06:17:01;;;;;;;15.88;13.20;;;7.90;99.90;;;;;;5053391;28;20199;-65
2021/12/12 06:19:30;;;;;;;17.20;14.05;;;7.90;99.90;;;;;;5052340;28;20268;-65
2021/12/12 06:21:58;;;;;;;21.25;14.80;;;7.90;99.90;;;;;;5052672;28;20177;-65
2021/12/12 06:24:26;;;;;;;19.77;14.90;;;8.00;99.90;;;;;;5052097;28;20209;-65
2021/12/12 06:26:53;;;;;;;23.02;15.45;;;7.90;99.90;;;;;;5052581;28;20171;-68
2021/12/12 06:29:20;;;;;;;21.55;16.30;;;7.90;99.90;;;;;;5053411;28;20174;-68
2021/12/12 06:31:48;;;;;;;20.52;15.32;;;7.90;99.90;;;;;;5052576;28;20712;-68
2021/12/12 06:34:14;;;;;;;18.50;15.48;;;7.90;99.90;;;;;;5052203;28;20209;-68
2021/12/12 06:36:41;;;;;;;29.80;18.13;;;7.80;99.90;;;;;;5053035;28;20680;-68
2021/12/12 06:39:09;;;;;;;34.75;19.55;;;8.00;99.90;;;;;;5053630;28;20171;-68
2021/12/12 06:41:36;;;;;;;34.60;20.25;;;8.00;99.90;;;;;;5051313;28;20526;-68
2021/12/12 06:44:04;;;;;;;38.55;17.90;;;8.10;99.90;;;;;;5053165;28;20199;-68
2021/12/12 06:46:30;;;;;;;31.88;17.08;;;8.10;99.90;;;;;;5051261;28;20630;-68
2021/12/12 06:48:58;;;;;;;30.58;18.33;;;8.00;99.90;;;;;;5051765;28;20178;-67
2021/12/12 06:51:27;;;;;;;26.65;19.15;;;8.00;99.90;;;;;;5052408;28;20178;-67
2021/12/12 06:53:53;;;;;;;26.92;18.25;;;8.00;99.90;;;;;;5053137;28;20182;-68
2021/12/12 06:56:20;;;;;;;35.40;19.88;;;8.00;99.90;;;;;;5034619;28;20179;-68
2021/12/12 06:58:48;;;;;;;30.75;18.88;;;8.10;99.90;;;;;;5053080;28;20183;-65
2021/12/12 07:01:18;;;;;;;30.35;19.00;;;8.00;99.90;;;;;;5050718;28;20652;-65
2021/12/12 07:03:48;;;;;;;33.88;19.30;;;8.00;99.90;;;;;;5052581;28;20572;-67
2021/12/12 07:06:17;;;;;;;33.42;18.98;;;8.00;99.90;;;;;;5052594;28;20206;-67
2021/12/12 07:08:43;;;;;;;33.25;19.58;;;8.10;99.90;;;;;;5052021;28;20269;-67
2021/12/12 07:11:10;;;;;;;24.33;16.67;;;8.10;99.90;;;;;;5013726;28;20237;-68
2021/12/12 07:13:36;;;;;;;32.47;19.73;;;8.10;99.90;;;;;;5032047;28;20185;-68
2021/12/12 07:16:04;;;;;;;28.40;17.67;;;8.10;99.90;;;;;;5031010;28;20248;-67
2021/12/12 07:18:33;;;;;;;38.40;19.90;;;8.10;99.90;;;;;;5032956;28;20174;-68
2021/12/12 07:21:03;;;;;;;28.17;17.80;;;8.10;99.90;;;;;;5032816;28;20618;-67
2021/12/12 07:23:30;;;;;;;27.17;17.27;;;8.10;99.90;;;;;;5035574;28;20188;-68
2021/12/12 07:25:59;;;;;;;30.55;18.75;;;8.20;99.90;;;;;;5035756;28;20230;-68
2021/12/12 07:28:25;;;;;;;26.65;17.30;;;8.20;99.90;;;;;;5036274;28;20501;-68
2021/12/12 07:30:51;;;;;;;34.08;19.73;;;8.20;99.90;;;;;;5035918;28;20172;-66
2021/12/12 07:33:18;;;;;;;42.60;22.20;;;8.20;99.90;;;;;;5032986;28;20506;-66
2021/12/12 07:35:44;;;;;;;37.17;19.95;;;8.30;99.90;;;;;;5033179;28;20203;-66
2021/12/12 07:38:13;;;;;;;38.38;18.15;;;8.30;99.90;;;;;;5034473;28;20634;-66
2021/12/12 07:40:40;;;;;;;26.38;18.45;;;8.30;99.90;;;;;;5053007;28;20182;-68
2021/12/12 07:43:06;;;;;;;47.17;22.20;;;8.20;99.90;;;;;;5038685;28;20599;-67
2021/12/12 07:45:34;;;;;;;39.97;22.33;;;8.20;99.90;;;;;;5037755;28;20642;-68
2021/12/12 07:48:00;;;;;;;44.13;22.67;;;8.30;99.90;;;;;;5056145;28;20175;-67
2021/12/12 07:50:27;;;;;;;41.20;22.67;;;8.40;99.90;;;;;;5055616;28;20508;-67
2021/12/12 07:52:55;;;;;;;38.28;21.15;;;8.30;99.90;;;;;;5055884;28;20182;-67
2021/12/12 07:55:21;;;;;;;39.60;21.45;;;8.30;99.90;;;;;;5055212;28;20202;-67
2021/12/12 07:57:47;;;;;;;32.20;19.10;;;8.20;99.90;;;;;;5054893;28;20200;-68
2021/12/12 08:00:20;;;;;;;51.65;23.38;;;8.20;99.90;;;;;;5055337;28;20631;-67
2021/12/12 08:02:48;;;;;;;48.20;22.75;;;8.30;99.90;;;;;;5055764;28;20234;-66
2021/12/12 08:05:16;;;;;;;47.67;23.52;;;8.20;99.90;;;;;;5053681;28;20179;-67
2021/12/12 08:07:43;;;;;;;53.78;24.77;;;8.30;99.90;;;;;;5054398;28;20210;-67
2021/12/12 08:10:11;;;;;;;57.90;25.05;;;8.40;99.90;;;;;;5055040;28;20183;-65
2021/12/12 08:12:37;;;;;;;60.72;25.63;;;8.40;99.90;;;;;;5055061;28;20641;-66
2021/12/12 08:15:09;;;;;;;49.55;23.55;;;8.50;99.90;;;;;;5054862;28;20175;-63
2021/12/12 08:17:34;;;;;;;43.20;22.05;;;8.50;99.90;;;;;;5055747;28;20221;-66
2021/12/12 08:20:04;;;;;;;51.67;23.50;;;8.40;99.90;;;;;;5055881;28;20211;-67
2021/12/12 08:22:30;;;;;;;62.63;26.00;;;8.40;99.90;;;;;;5054847;28;20284;-68
2021/12/12 08:24:58;;;;;;;64.88;28.10;;;8.40;99.90;;;;;;5055920;28;20525;-67
2021/12/12 08:27:24;;;;;;;66.43;28.48;;;8.60;99.90;;;;;;5054887;28;20183;-67
2021/12/12 08:29:50;;;;;;;50.67;25.70;;;8.70;99.90;;;;;;5054078;28;20549;-68
2021/12/12 08:32:17;;;;;;;51.10;25.65;;;8.70;99.90;;;;;;5054689;28;20171;-67
2021/12/12 08:34:43;;;;;;;72.15;30.40;;;8.60;99.90;;;;;;5055275;28;20194;-67
2021/12/12 08:37:09;;;;;;;62.28;28.60;;;8.70;99.90;;;;;;5053521;28;20262;-68
2021/12/12 08:39:36;;;;;;;56.63;26.33;;;8.70;99.90;;;;;;5055102;28;20229;-68
2021/12/12 08:42:04;;;;;;;52.08;26.00;;;8.70;99.90;;;;;;5054654;28;20178;-67
2021/12/12 08:44:30;;;;;;;71.95;30.10;;;8.70;99.90;;;;;;5055087;28;20178;-68
2021/12/12 08:47:00;;;;;;;51.70;26.55;;;8.80;99.90;;;;;;5054602;28;20182;-67
2021/12/12 08:49:29;;;;;;;40.55;23.10;;;8.70;99.90;;;;;;5055244;28;20206;-67
2021/12/12 08:52:01;;;;;;;47.97;23.85;;;8.70;99.90;;;;;;5054460;28;20202;-67
2021/12/12 08:54:28;;;;;;;50.70;25.95;;;8.80;99.90;;;;;;5054527;28;20182;-67
2021/12/12 08:57:09;;;;;;;49.17;25.58;;;8.80;99.90;;;;;;5054427;28;20168;-68
2021/12/12 08:59:37;;;;;;;56.35;27.17;;;8.70;99.90;;;;;;5055042;28;20160;-66
2021/12/12 09:02:07;;;;;;;44.63;22.77;;;8.80;99.90;;;;;;5054248;28;20164;-67
2021/12/12 09:04:40;;;;;;;41.72;23.55;;;8.80;99.90;;;;;;5054944;28;20179;-68
2021/12/12 09:07:21;;;;;;;48.55;23.58;;;8.90;99.90;;;;;;5054239;28;20601;-68
2021/12/12 09:10:03;;;;;;;48.22;23.48;;;9.00;99.90;;;;;;5054865;28;20246;-67
2021/12/12 09:12:34;;;;;;;42.92;22.52;;;9.10;99.90;;;;;;5054401;28;20179;-68
2021/12/12 09:15:29;;;;;;;45.08;22.73;;;9.00;99.90;;;;;;5054353;28;20627;-67
2021/12/12 09:18:01;;;;;;;44.03;22.50;;;9.10;99.90;;;;;;5052501;28;20183;-66
2021/12/12 09:20:56;;;;;;;31.17;19.30;;;9.20;99.90;;;;;;5054046;28;20202;-66
2021/12/12 09:23:31;;;;;;;40.95;21.10;;;9.00;99.90;;;;;;5051480;28;20352;-66
2021/12/12 09:26:07;;;;;;;36.10;20.02;;;9.00;99.90;;;;;;5053793;28;20163;-69
2021/12/12 09:28:48;;;;;;;40.17;23.23;;;9.00;99.90;;;;;;5054505;28;20165;-65
2021/12/12 09:31:24;;;;;;;52.13;24.75;;;9.10;99.90;;;;;;5053505;28;20171;-61
2021/12/12 09:34:03;;;;;;;43.33;22.83;;;9.20;99.90;;;;;;5054523;28;20582;-61
2021/12/12 09:36:38;;;;;;;47.10;24.33;;;9.10;99.90;;;;;;5053684;28;20257;-61
2021/12/12 09:39:17;;;;;;;31.48;19.48;;;9.30;99.90;;;;;;5054309;28;20188;-61
2021/12/12 09:42:04;;;;;;;42.13;21.90;;;9.20;99.90;;;;;;5052761;28;20621;-61
2021/12/12 09:45:00;;;;;;;38.10;21.65;;;9.20;99.90;;;;;;5053387;28;20171;-60
2021/12/12 09:53:27;;;;;;;34.28;20.33;;;9.10;99.90;;;;;;5052898;28;20187;-60
2021/12/12 09:56:14;;;;;;;33.10;19.95;;;9.20;99.90;;;;;;5048651;28;20167;-60
2021/12/12 09:58:58;;;;;;;33.35;19.85;;;9.20;99.90;;;;;;5052904;28;20171;-61
2021/12/12 10:01:39;;;;;;;31.30;19.00;;;9.30;99.90;;;;;;5053020;28;20239;-61
2021/12/12 10:04:48;;;;;;;43.25;21.90;;;9.30;99.90;;;;;;5053805;28;20201;-62
2021/12/12 10:07:35;;;;;;;42.40;23.20;;;9.40;99.90;;;;;;5051602;28;20269;-62
2021/12/12 10:10:09;;;;;;;33.75;20.60;;;9.40;99.90;;;;;;5053085;28;20187;-60
2021/12/12 10:12:40;;;;;;;38.00;20.85;;;9.50;99.90;;;;;;5053776;28;20540;-61
2021/12/12 10:15:06;;;;;;;37.58;21.90;;;9.50;99.90;;;;;;5035131;28;20180;-61
2021/12/12 10:17:43;;;;;;;39.60;21.88;;;9.50;99.90;;;;;;5053234;28;20243;-61
2021/12/12 10:20:25;;;;;;;29.25;19.35;;;9.60;99.90;;;;;;5051703;28;20166;-61
2021/12/12 10:22:56;;;;;;;34.42;20.90;;;9.60;99.90;;;;;;5053490;28;20222;-61
2021/12/12 10:25:29;;;;;;;35.55;20.58;;;9.50;99.90;;;;;;5052632;28;20178;-61
2021/12/12 10:28:06;;;;;;;32.38;19.42;;;9.50;99.90;;;;;;5053028;28;20162;-62
2021/12/12 10:30:39;;;;;;;29.40;19.45;;;9.40;99.90;;;;;;5051353;28;20201;-62
2021/12/12 10:33:11;;;;;;;38.35;21.20;;;9.50;99.90;;;;;;5053782;28;20156;-61
2021/12/12 10:35:47;;;;;;;42.20;23.08;;;9.60;99.90;;;;;;5052476;28;20198;-60
2021/12/12 10:38:51;;;;;;;35.72;20.88;;;9.60;99.90;;;;;;5053476;28;20159;-61
2021/12/12 10:41:32;;;;;;;39.80;22.60;;;9.60;99.90;;;;;;5046259;28;20183;-61
2021/12/12 10:44:15;;;;;;;38.72;22.23;;;9.50;99.90;;;;;;5053388;28;20649;-61
2021/12/12 10:46:55;;;;;;;41.42;23.88;;;9.60;99.90;;;;;;5052357;28;20666;-60
2021/12/12 10:50:02;;;;;;;31.63;21.33;;;9.70;99.90;;;;;;5053124;28;20159;-63
2021/12/12 10:52:43;;;;;;;41.13;24.85;;;9.60;99.90;;;;;;5052697;28;20220;-62
2021/12/12 10:55:21;;;;;;;36.17;24.02;;;9.60;99.90;;;;;;5052106;28;20170;-62
2021/12/12 10:57:57;;;;;;;39.88;25.95;;;9.60;99.90;;;;;;5054988;28;20643;-62
2021/12/12 11:00:30;;;;;;;47.85;27.15;;;9.70;99.90;;;;;;5056485;28;20228;-62
2021/12/12 11:03:07;;;;;;;46.63;26.67;;;9.70;99.90;;;;;;5056993;28;20194;-62
2021/12/12 11:05:37;;;;;;;36.17;25.15;;;9.80;99.90;;;;;;5056514;28;20179;-62
2021/12/12 11:08:33;;;;;;;38.40;24.65;;;9.80;99.90;;;;;;5056628;28;20246;-61
2021/12/12 11:11:07;;;;;;;38.13;24.90;;;9.80;99.90;;;;;;5056425;28;20191;-60
2021/12/12 11:13:41;;;;;;;44.97;26.48;;;9.90;99.90;;;;;;5056767;28;20168;-60
2021/12/12 11:16:12;;;;;;;28.58;21.92;;;9.90;99.90;;;;;;5055895;28;20198;-59
2021/12/12 11:18:57;;;;;;;32.55;23.80;;;9.90;99.90;;;;;;5056679;28;20175;-64
2021/12/12 11:21:41;;;;;;;335.02;61.83;;;10.00;99.90;;;;;;5056299;28;20667;-61
2021/12/12 11:24:15;;;;;;;45.85;26.98;;;10.00;99.90;;;;;;5056541;28;20191;-61
2021/12/12 11:26:56;;;;;;;50.05;27.88;;;10.10;99.90;;;;;;5054882;28;20213;-61
2021/12/12 11:29:30;;;;;;;35.95;23.83;;;10.10;99.90;;;;;;5056505;28;20254;-60
2021/12/12 11:32:19;;;;;;;41.50;26.20;;;10.10;99.90;;;;;;5056012;28;20166;-61
2021/12/12 11:34:51;;;;;;;38.95;26.05;;;10.00;99.90;;;;;;5056697;28;20194;-63
2021/12/12 11:37:28;;;;;;;49.72;28.70;;;10.10;99.90;;;;;;5055968;28;20163;-63
2021/12/12 11:40:06;;;;;;;32.20;23.63;;;10.10;99.90;;;;;;5056318;28;20167;-63
2021/12/12 11:42:51;;;;;;;31.45;23.85;;;10.10;99.90;;;;;;5056266;28;20242;-61
2021/12/12 11:45:38;;;;;;;39.05;26.38;;;10.00;99.90;;;;;;5055858;28;20233;-61
2021/12/12 11:48:19;;;;;;;37.53;24.70;;;10.20;99.90;;;;;;5056131;28;20198;-63
2021/12/12 11:50:54;;;;;;;41.53;26.98;;;10.20;99.90;;;;;;5055598;28;20166;-63
2021/12/12 11:53:35;;;;;;;43.88;27.27;;;10.20;99.90;;;;;;5056381;28;20244;-61
2021/12/12 11:56:07;;;;;;;36.83;24.95;;;10.20;99.90;;;;;;5055334;28;20246;-63
2021/12/12 11:59:07;;;;;;;43.35;26.00;;;10.20;99.90;;;;;;5056470;28;20163;-62
2021/12/12 12:01:49;;;;;;;34.95;23.95;;;10.40;99.90;;;;;;5038134;28;20195;-61
2021/12/12 12:04:26;;;;;;;48.97;26.73;;;10.30;99.90;;;;;;5056071;28;20187;-60
2021/12/12 12:07:13;;;;;;;31.02;23.02;;;10.30;99.90;;;;;;5055682;28;20175;-63
2021/12/12 12:09:49;;;;;;;37.67;24.88;;;10.40;99.90;;;;;;5054618;28;20667;-64
2021/12/12 12:12:34;;;;;;;32.92;23.92;;;10.50;99.90;;;;;;5055387;28;20201;-61
2021/12/12 12:15:09;;;;;;;25.45;21.40;;;10.50;99.90;;;;;;5055718;28;20183;-63
2021/12/12 12:17:50;;;;;;;29.92;22.40;;;10.40;99.90;;;;;;5055672;28;20230;-63
2021/12/12 12:20:40;;;;;;;39.83;24.13;;;10.50;99.90;;;;;;5054978;28;20159;-63
2021/12/12 12:23:47;;;;;;;30.80;22.98;;;10.50;99.90;;;;;;5055560;28;20281;-63
2021/12/12 12:29:26;;;;;;;24.05;20.65;;;10.60;99.90;;;;;;5055444;28;20252;-63
2021/12/12 12:32:04;;;;;;;32.55;22.75;;;10.50;99.90;;;;;;5054990;28;20195;-62
2021/12/12 12:35:27;;;;;;;22.92;19.83;;;10.60;99.90;;;;;;5055565;28;20175;-62
2021/12/12 12:38:04;;;;;;;25.52;20.10;;;10.70;99.90;;;;;;5013346;28;20184;-62
2021/12/12 12:40:49;;;;;;;25.42;20.40;;;10.70;99.90;;;;;;5012727;28;20187;-62
2021/12/12 12:43:33;;;;;;;30.02;21.30;;;10.70;99.90;;;;;;5040977;28;20265;-62
2021/12/12 12:46:36;;;;;;;27.58;19.50;;;10.70;99.90;;;;;;5054740;28;20196;-62
2021/12/12 12:49:39;;;;;;;22.60;18.67;;;10.70;99.90;;;;;;5055015;28;20237;-62
2021/12/12 12:52:07;;;;;;;25.17;19.48;;;10.70;99.90;;;;;;5054533;28;20167;-62
2021/12/12 12:55:05;;;;;;;24.45;18.55;;;10.70;99.90;;;;;;5054938;28;20671;-62
2021/12/12 12:57:37;;;;;;;25.42;19.48;;;10.70;99.90;;;;;;5054171;28;20186;-62
2021/12/12 13:00:06;;;;;;;21.60;17.40;;;10.80;99.90;;;;;;5053739;28;20655;-62
2021/12/12 13:02:54;;;;;;;27.55;19.55;;;10.80;99.90;;;;;;5054723;28;20202;-63
2021/12/12 13:05:50;;;;;;;21.50;17.35;;;10.90;99.90;;;;;;5054176;28;20179;-61
2021/12/12 13:08:50;;;;;;;19.25;17.15;;;10.70;99.90;;;;;;5053410;28;20182;-61
2021/12/12 13:11:47;;;;;;;25.52;18.23;;;10.80;99.90;;;;;;5054062;28;20172;-61
2021/12/12 13:14:46;;;;;;;20.05;15.95;;;10.80;99.90;;;;;;5045286;28;20187;-61
2021/12/12 13:17:31;;;;;;;34.67;20.90;;;10.80;99.90;;;;;;5054056;28;20198;-61
2021/12/12 13:20:20;;;;;;;27.98;17.98;;;10.90;99.90;;;;;;5054585;28;20166;-62
2021/12/12 13:23:14;;;;;;;19.70;15.55;;;10.90;99.90;;;;;;5052483;28;20587;-62
2021/12/12 13:26:21;;;;;;;19.40;16.17;;;10.90;99.90;;;;;;5052567;28;20187;-62
2021/12/12 13:29:03;;;;;;;22.10;16.50;;;10.90;99.90;;;;;;5045718;28;20223;-62
2021/12/12 13:31:39;;;;;;;23.25;16.25;;;11.00;99.90;;;;;;5053831;28;20201;-62
2021/12/12 13:34:26;;;;;;;16.40;14.70;;;11.00;99.90;;;;;;5054097;28;20175;-62
2021/12/12 13:37:26;;;;;;;17.50;14.20;;;10.90;99.90;;;;;;5053732;28;20163;-62
2021/12/12 13:40:24;;;;;;;21.25;16.13;;;10.90;99.90;;;;;;5054342;28;20171;-62
2021/12/12 13:43:08;;;;;;;17.17;14.77;;;11.00;99.90;;;;;;5052791;28;20599;-62